Time;durP1;ratioP1;P1;durP2;ratioP2;P2;SDS_P1;SDS_P2;PMS_P1;PMS_P2;Temp;Humidity;BMP_temperature;BMP_pressure;BME280_temperature;BME280_humidity;BME280_pressure;Samples;Min_cycle;Max_cycle;Signal;HPM_P1;HPM_P2
2022/11/23 00:02:17;;;;;;;98.90;41.80;;;;;;;1.70;88.36;99760.70;100427;1290;98484;-59
2022/11/23 00:04:49;;;;;;;71.90;31.70;;;;;;;1.72;88.25;99758.52;100348;1290;93694;-63
2022/11/23 00:07:17;;;;;;;105.20;40.70;;;;;;;1.72;88.05;99760.34;100293;1293;80987;-61
2022/11/23 00:09:46;;;;;;;86.70;34.50;;;;;;;1.68;88.14;99759.15;100364;1291;88734;-60
2022/11/23 00:12:15;;;;;;;87.60;37.10;;;;;;;1.67;88.19;99753.02;100381;1291;80339;-60
2022/11/23 00:14:44;;;;;;;133.00;47.90;;;;;;;1.67;88.16;99751.27;100377;1295;99545;-58
2022/11/23 00:17:15;;;;;;;99.60;39.50;;;;;;;1.69;87.96;99752.48;100347;1284;93324;-57
2022/11/23 00:19:44;;;;;;;85.60;34.30;;;;;;;1.70;88.11;99749.54;100383;1291;82909;-58
2022/11/23 00:22:14;;;;;;;92.20;38.40;;;;;;;1.74;88.17;99747.19;100379;1292;87654;-57
2022/11/23 00:24:42;;;;;;;76.80;35.40;;;;;;;1.74;88.23;99745.36;100437;1290;79386;-59
2022/11/23 00:27:11;;;;;;;80.40;38.10;;;;;;;1.68;88.27;99744.52;100446;1291;99350;-59
2022/11/23 00:29:42;;;;;;;70.10;31.80;;;;;;;1.70;88.31;99742.06;100424;1284;94770;-58
2022/11/23 00:32:11;;;;;;;73.10;31.70;;;;;;;1.68;88.28;99739.40;100391;1284;82713;-60
2022/11/23 00:34:40;;;;;;;62.30;28.80;;;;;;;1.68;88.28;99742.62;100429;1290;89237;-58
2022/11/23 00:37:09;;;;;;;66.00;30.80;;;;;;;1.63;88.32;99740.14;100415;1291;80920;-59
2022/11/23 00:39:40;;;;;;;69.70;29.90;;;;;;;1.61;88.20;99740.98;100443;1292;99685;-62
2022/11/23 00:42:09;;;;;;;63.30;28.50;;;;;;;1.60;88.24;99743.20;100385;1290;93043;-62
2022/11/23 00:44:38;;;;;;;62.50;27.40;;;;;;;1.60;88.29;99742.66;100397;1290;82334;-61
2022/11/23 00:47:09;;;;;;;62.00;28.80;;;;;;;1.56;88.45;99736.67;100401;1290;89041;-60
2022/11/23 00:49:40;;;;;;;68.10;30.20;;;;;;;1.59;88.40;99735.69;100407;1291;81700;-60
2022/11/23 00:52:10;;;;;;;60.70;27.00;;;;;;;1.61;88.36;99737.23;100387;1295;99509;-60
2022/11/23 00:54:41;;;;;;;60.20;27.50;;;;;;;1.61;88.57;99736.76;100414;1291;95872;-57
2022/11/23 00:57:10;;;;;;;61.40;29.90;;;;;;;1.64;88.53;99732.95;100420;1290;83012;-57
2022/11/23 00:59:39;;;;;;;68.90;31.00;;;;;;;1.63;88.60;99732.25;100429;1290;88795;-57
2022/11/23 01:02:08;;;;;;;59.90;30.00;;;;;;;1.70;88.50;99735.13;100412;1291;76837;-58
2022/11/23 01:04:38;;;;;;;64.30;30.90;;;;;;;1.72;88.50;99736.71;100404;1291;99910;-60
2022/11/23 01:07:08;;;;;;;59.90;29.30;;;;;;;1.74;88.40;99735.27;100405;1298;92886;-59
2022/11/23 01:09:37;;;;;;;60.70;28.70;;;;;;;1.75;88.32;99738.60;100413;1291;82340;-61
2022/11/23 01:12:09;;;;;;;61.70;29.30;;;;;;;1.75;88.16;99738.15;100371;1292;89315;-61
2022/11/23 01:14:41;;;;;;;68.10;30.30;;;;;;;1.71;88.15;99738.20;100417;1291;79857;-57
2022/11/23 01:17:09;;;;;;;63.30;27.80;;;;;;;1.67;88.12;99735.79;100404;1295;100314;-56
2022/11/23 01:19:45;;;;;;;56.40;27.10;;;;;;;1.65;88.29;99736.14;100402;1297;94863;-58
2022/11/23 01:22:14;;;;;;;59.10;26.90;;;;;;;1.66;88.31;99729.71;100405;1291;83647;-57
2022/11/23 01:24:45;;;;;;;52.40;24.30;;;;;;;1.70;88.22;99738.54;100406;1291;88020;-57
2022/11/23 01:27:17;;;;;;;51.40;23.60;;;;;;;1.67;88.41;99739.35;100415;1292;81605;-58
2022/11/23 01:29:48;;;;;;;60.00;25.90;;;;;;;1.67;88.53;99739.72;100456;1290;99017;-56
2022/11/23 01:32:18;;;;;;;51.30;24.20;;;;;;;1.68;88.40;99738.02;100385;1291;95236;-50
2022/11/23 01:34:48;;;;;;;58.60;25.30;;;;;;;1.69;88.37;99733.64;100397;1291;83235;-54
2022/11/23 01:37:17;;;;;;;54.70;26.30;;;;;;;1.72;88.44;99735.11;100436;1291;87350;-53
2022/11/23 01:39:48;;;;;;;56.90;27.80;;;;;;;1.72;88.39;99731.73;100274;1293;79470;-57
2022/11/23 01:42:19;;;;;;;56.00;25.70;;;;;;;1.70;88.46;99732.10;100382;1298;98733;-56
2022/11/23 01:44:52;;;;;;;56.80;26.60;;;;;;;1.63;88.53;99734.75;100388;1291;94790;-59
2022/11/23 01:47:21;;;;;;;56.40;27.10;;;;;;;1.62;88.38;99736.80;100410;1291;83392;-60
2022/11/23 01:49:54;;;;;;;57.50;24.30;;;;;;;1.62;88.34;99737.67;100382;1298;87391;-56
2022/11/23 01:52:26;;;;;;;56.60;26.30;;;;;;;1.66;88.33;99735.73;100404;1291;80741;-58
2022/11/23 01:54:58;;;;;;;57.00;25.50;;;;;;;1.68;88.43;99730.94;100426;1291;99445;-60
2022/11/23 01:57:33;;;;;;;59.60;26.10;;;;;;;1.62;88.44;99728.98;100405;1291;94541;-57
2022/11/23 02:00:08;;;;;;;56.20;25.10;;;;;;;1.63;88.67;99732.12;100442;1291;82230;-59
2022/11/23 02:02:39;;;;;;;54.10;25.30;;;;;;;1.64;88.53;99724.94;100392;1291;87669;-59
2022/11/23 02:05:11;;;;;;;54.10;25.60;;;;;;;1.62;88.76;99727.38;100421;1290;80856;-60
2022/11/23 02:07:41;;;;;;;52.10;25.10;;;;;;;1.65;88.75;99728.68;100417;1290;97869;-61
2022/11/23 02:10:11;;;;;;;56.20;25.90;;;;;;;1.70;88.61;99727.30;100425;1291;95237;-57
2022/11/23 02:12:41;;;;;;;51.30;24.80;;;;;;;1.73;88.55;99725.48;100460;1290;82667;-57
2022/11/23 02:15:12;;;;;;;61.30;26.00;;;;;;;1.63;88.71;99727.27;100428;1297;88707;-58
2022/11/23 02:17:42;;;;;;;51.90;25.10;;;;;;;1.60;88.70;99725.10;100444;1291;79349;-58
2022/11/23 02:20:18;;;;;;;48.90;23.10;;;;;;;1.57;88.73;99730.35;100431;1291;98386;-57
2022/11/23 02:23:02;;;;;;;57.30;25.70;;;;;;;1.56;88.54;99732.27;100390;1297;94498;-59
2022/11/23 02:25:41;;;;;;;51.90;23.70;;;;;;;1.60;88.63;99731.84;100398;1290;82808;-57
2022/11/23 02:28:16;;;;;;;53.50;25.50;;;;;;;1.63;88.62;99741.53;100400;1291;89308;-57
2022/11/23 02:30:50;;;;;;;52.20;24.40;;;;;;;1.65;88.78;99746.42;100417;1290;79354;-56
2022/11/23 02:33:21;;;;;;;48.70;22.20;;;;;;;1.66;88.67;99753.68;100404;1284;99833;-60
2022/11/23 02:35:55;;;;;;;46.10;21.50;;;;;;;1.71;88.61;99758.96;100366;1291;94958;-62
2022/11/23 02:38:26;;;;;;;49.00;22.20;;;;;;;1.67;88.47;99769.84;100398;1290;81862;-58
2022/11/23 02:40:55;;;;;;;42.40;21.50;;;;;;;1.66;88.56;99773.17;100398;1291;89000;-57
2022/11/23 02:43:29;;;;;;;44.60;22.70;;;;;;;1.63;88.78;99773.31;100398;1290;78611;-61
2022/11/23 02:46:01;;;;;;;46.10;23.90;;;;;;;1.54;88.84;99774.70;100379;1291;99648;-61
2022/11/23 02:48:32;;;;;;;45.00;22.70;;;;;;;1.50;88.73;99780.56;100386;1284;94374;-50
2022/11/23 02:51:01;;;;;;;51.10;22.40;;;;;;;1.47;88.66;99783.49;100441;1290;83041;-58
2022/11/23 02:53:30;;;;;;;53.00;24.40;;;;;;;1.41;88.71;99786.77;100401;1290;88771;-49
2022/11/23 02:56:01;;;;;;;44.00;19.70;;;;;;;1.40;88.66;99783.52;100453;1291;80823;-57
2022/11/23 02:58:30;;;;;;;45.70;22.10;;;;;;;1.32;89.01;99783.19;100478;1290;99251;-57
2022/11/23 03:00:59;;;;;;;51.40;23.20;;;;;;;1.36;88.99;99780.55;100374;1291;95167;-52
2022/11/23 03:03:28;;;;;;;50.10;23.70;;;;;;;1.44;88.91;99779.59;100409;1292;79930;-58
2022/11/23 03:06:00;;;;;;;50.40;21.90;;;;;;;1.49;88.74;99778.86;100392;1291;89346;-57
2022/11/23 03:08:30;;;;;;;47.10;22.90;;;;;;;1.56;88.92;99780.22;100415;1291;79385;-61
2022/11/23 03:11:02;;;;;;;49.10;22.70;;;;;;;1.52;88.85;99775.41;100407;1290;99609;-58
2022/11/23 03:13:33;;;;;;;50.70;23.30;;;;;;;1.51;89.15;99775.36;100393;1291;95175;-52
2022/11/23 03:16:05;;;;;;;49.50;23.50;;;;;;;1.47;88.92;99775.54;100393;1297;81214;-56
2022/11/23 03:18:36;;;;;;;52.30;24.10;;;;;;;1.44;88.89;99779.58;100418;1295;86642;-57
2022/11/23 03:21:08;;;;;;;57.10;24.80;;;;;;;1.43;88.76;99788.91;100423;1290;80811;-57
2022/11/23 03:23:38;;;;;;;56.10;23.50;;;;;;;1.45;88.81;99785.73;100379;1297;96956;-61
2022/11/23 03:26:07;;;;;;;52.80;24.50;;;;;;;1.46;88.97;99785.60;100404;1290;95711;-60
2022/11/23 03:28:37;;;;;;;55.30;25.00;;;;;;;1.45;88.94;99789.77;100397;1291;83088;-57
2022/11/23 03:31:06;;;;;;;51.00;23.90;;;;;;;1.46;89.08;99791.39;100440;1291;88377;-58
2022/11/23 03:33:37;;;;;;;52.10;22.90;;;;;;;1.41;89.12;99791.56;100420;1290;80049;-58
2022/11/23 03:36:09;;;;;;;53.10;23.80;;;;;;;1.44;89.13;99789.46;100442;1291;98185;-59
2022/11/23 03:38:38;;;;;;;51.90;24.60;;;;;;;1.48;88.96;99783.79;100416;1284;95277;-63
2022/11/23 03:41:13;;;;;;;52.70;24.40;;;;;;;1.55;88.97;99783.14;100401;1298;83685;-62
2022/11/23 03:43:44;;;;;;;52.20;24.40;;;;;;;1.56;89.14;99779.25;100401;1290;88515;-61
2022/11/23 03:46:13;;;;;;;52.90;23.90;;;;;;;1.51;89.06;99776.26;100412;1298;80449;-61
2022/11/23 03:48:42;;;;;;;53.70;24.00;;;;;;;1.51;88.86;99777.12;100437;1291;100086;-58
2022/11/23 03:51:13;;;;;;;53.90;23.90;;;;;;;1.52;88.72;99775.13;100380;1297;93196;-60
2022/11/23 03:53:45;;;;;;;53.80;23.00;;;;;;;1.48;88.86;99778.09;100393;1291;82566;-53
2022/11/23 03:56:16;;;;;;;53.00;22.70;;;;;;;1.44;88.92;99774.27;100394;1290;87994;-55
2022/11/23 03:58:46;;;;;;;51.90;23.60;;;;;;;1.44;88.95;99776.00;100343;1294;81361;-60
2022/11/23 04:01:17;;;;;;;51.20;23.10;;;;;;;1.47;89.07;99774.98;100373;1290;99947;-50
2022/11/23 04:03:47;;;;;;;48.50;22.90;;;;;;;1.51;89.03;99776.08;100413;1290;95240;-58
2022/11/23 04:06:18;;;;;;;48.30;21.90;;;;;;;1.55;88.98;99775.61;100389;1291;81860;-57
2022/11/23 04:08:49;;;;;;;50.50;21.40;;;;;;;1.47;89.14;99778.52;100407;1291;88429;-61
2022/11/23 04:11:20;;;;;;;53.10;24.50;;;;;;;1.45;89.07;99782.99;100401;1291;79798;-62
2022/11/23 04:13:51;;;;;;;52.10;22.70;;;;;;;1.41;88.99;99784.17;100456;1290;99611;-56
2022/11/23 04:16:22;;;;;;;53.10;23.60;;;;;;;1.33;89.01;99787.21;100384;1291;94581;-54
2022/11/23 04:18:51;;;;;;;54.70;23.80;;;;;;;1.34;89.05;99788.17;100426;1298;83166;-58
2022/11/23 04:21:22;;;;;;;48.90;22.10;;;;;;;1.33;89.20;99786.89;100412;1291;88937;-58
2022/11/23 04:23:53;;;;;;;50.10;23.00;;;;;;;1.31;89.27;99788.30;100429;1297;81768;-60
2022/11/23 04:26:23;;;;;;;48.90;23.00;;;;;;;1.36;89.16;99785.70;100408;1298;99846;-60
2022/11/23 04:28:55;;;;;;;52.10;22.40;;;;;;;1.37;89.23;99783.48;100357;1295;92887;-60
2022/11/23 04:31:26;;;;;;;45.40;21.90;;;;;;;1.40;89.27;99783.14;100393;1291;82277;-60
2022/11/23 04:33:56;;;;;;;44.90;21.40;;;;;;;1.46;89.12;99778.66;100411;1291;88628;-57
2022/11/23 04:36:26;;;;;;;46.00;20.10;;;;;;;1.51;89.05;99779.41;100431;1290;79319;-57
2022/11/23 04:38:55;;;;;;;40.20;20.70;;;;;;;1.47;89.14;99780.16;100398;1298;98588;-59
2022/11/23 04:41:26;;;;;;;50.00;23.30;;;;;;;1.46;89.31;99780.81;100398;1291;92841;-61
2022/11/23 04:43:55;;;;;;;44.70;20.70;;;;;;;1.44;89.22;99791.47;100468;1291;81361;-57
2022/11/23 04:46:24;;;;;;;47.90;22.60;;;;;;;1.37;89.20;99792.52;100415;1291;87781;-58
2022/11/23 04:48:56;;;;;;;45.90;21.40;;;;;;;1.29;89.36;99791.47;100381;1291;81808;-62
2022/11/23 04:51:24;;;;;;;37.40;17.20;;;;;;;1.28;89.35;99793.02;100379;1291;99952;-61
2022/11/23 04:53:54;;;;;;;41.30;19.50;;;;;;;1.23;89.56;99787.14;100412;1291;95647;-60
2022/11/23 04:56:26;;;;;;;48.20;21.00;;;;;;;1.26;89.42;99782.77;100442;1297;80429;-60
2022/11/23 04:58:55;;;;;;;44.00;21.70;;;;;;;1.29;89.32;99779.95;100430;1298;87765;-61
2022/11/23 05:01:23;;;;;;;49.90;25.90;;;;;;;1.34;89.44;99780.92;100409;1285;79683;-57
2022/11/23 05:03:54;;;;;;;41.40;22.00;;;;;;;1.40;89.41;99782.30;100300;1294;98084;-61
2022/11/23 05:06:23;;;;;;;56.00;25.40;;;;;;;1.41;89.39;99776.09;100416;1298;95451;-61
2022/11/23 05:08:55;;;;;;;46.00;22.40;;;;;;;1.39;89.33;99779.21;100442;1291;82854;-60
2022/11/23 05:11:25;;;;;;;47.60;21.50;;;;;;;1.31;89.40;99782.98;100421;1290;87106;-61
2022/11/23 05:13:54;;;;;;;56.30;24.70;;;;;;;1.26;89.52;99775.66;100437;1297;80336;-57
2022/11/23 05:16:23;;;;;;;49.10;21.50;;;;;;;1.25;89.37;99777.50;100413;1298;98238;-57
2022/11/23 05:18:55;;;;;;;45.10;19.90;;;;;;;1.26;89.35;99772.29;100083;1291;452611;-59
2022/11/23 05:21:27;;;;;;;51.70;23.30;;;;;;;1.25;89.43;99777.70;100419;1291;81455;-62
2022/11/23 05:23:58;;;;;;;51.90;23.60;;;;;;;1.31;89.31;99775.23;100268;1293;87493;-49
2022/11/23 05:26:27;;;;;;;54.50;23.60;;;;;;;1.32;89.41;99771.84;100423;1292;81646;-56
2022/11/23 05:28:56;;;;;;;42.50;20.10;;;;;;;1.35;89.38;99773.40;100426;1298;96855;-58
2022/11/23 05:31:25;;;;;;;49.80;22.60;;;;;;;1.33;89.49;99781.34;100409;1297;95604;-58
2022/11/23 05:33:54;;;;;;;36.40;18.00;;;;;;;1.35;89.43;99785.98;100383;1297;83243;-56
2022/11/23 05:36:27;;;;;;;49.80;22.40;;;;;;;1.38;89.17;99793.33;100439;1291;87606;-58
2022/11/23 05:38:56;;;;;;;42.10;19.40;;;;;;;1.35;89.19;99790.97;100407;1290;78866;-58
2022/11/23 05:41:27;;;;;;;37.40;17.80;;;;;;;1.31;89.17;99793.42;100395;1290;98559;-55
2022/11/23 05:43:59;;;;;;;34.90;16.60;;;;;;;1.27;89.16;99793.27;100451;1291;94808;-53
2022/11/23 05:46:30;;;;;;;38.50;18.20;;;;;;;1.20;89.15;99782.80;100416;1298;82875;-60
2022/11/23 05:49:02;;;;;;;41.40;19.40;;;;;;;1.20;89.26;99783.52;100405;1292;88382;-62
2022/11/23 05:51:33;;;;;;;39.60;19.00;;;;;;;1.19;89.32;99785.14;100446;1291;80749;-59
2022/11/23 05:54:08;;;;;;;50.10;22.40;;;;;;;1.27;89.25;99787.63;100422;1297;100072;-59
2022/11/23 05:56:38;;;;;;;45.10;21.60;;;;;;;1.32;89.33;99788.86;100395;1297;95844;-59
2022/11/23 05:59:08;;;;;;;39.00;18.70;;;;;;;1.34;89.31;99792.83;100392;1292;80733;-58
2022/11/23 06:01:38;;;;;;;33.40;17.00;;;;;;;1.35;89.18;99799.12;100408;1291;88926;-61
2022/11/23 06:04:12;;;;;;;31.00;15.20;;;;;;;1.26;89.10;99798.67;100391;1291;80157;-56
2022/11/23 06:06:44;;;;;;;28.10;14.20;;;;;;;1.17;89.06;99797.58;100269;1300;101446;-61
2022/11/23 06:09:12;;;;;;;27.70;14.70;;;;;;;1.08;89.03;99793.46;100434;1291;95138;-55
2022/11/23 06:11:44;;;;;;;29.50;14.40;;;;;;;1.07;89.21;99795.04;100391;1298;83619;-58
2022/11/23 06:14:15;;;;;;;29.80;15.60;;;;;;;1.09;89.15;99798.76;100404;1297;88681;-61
2022/11/23 06:16:46;;;;;;;35.80;17.60;;;;;;;1.10;89.08;99796.64;100369;1292;81780;-61
2022/11/23 06:19:16;;;;;;;30.70;14.50;;;;;;;1.12;89.27;99790.08;100296;1295;101955;-60
2022/11/23 06:21:45;;;;;;;43.20;21.40;;;;;;;1.13;89.24;99792.98;100410;1296;91867;-60
2022/11/23 06:24:23;;;;;;;52.60;23.40;;;;;;;1.16;89.23;99790.80;100419;1291;80317;-56
2022/11/23 06:26:55;;;;;;;71.90;32.70;;;;;;;1.17;89.30;99791.00;100400;1290;87837;-58
2022/11/23 06:29:28;;;;;;;43.60;22.80;;;;;;;1.15;89.48;99795.35;100425;1298;77693;-61
2022/11/23 06:32:01;;;;;;;35.70;17.70;;;;;;;1.10;89.41;99798.08;100392;1291;99209;-52
2022/11/23 06:34:39;;;;;;;36.70;18.20;;;;;;;1.06;89.42;99797.20;100422;1297;95891;-60
2022/11/23 06:37:08;;;;;;;50.40;23.50;;;;;;;1.04;89.44;99800.97;100392;1298;83041;-61
2022/11/23 06:39:39;;;;;;;36.90;17.80;;;;;;;0.98;89.40;99804.15;100433;1298;89332;-54
2022/11/23 06:42:08;;;;;;;41.60;19.90;;;;;;;0.96;89.44;99806.70;100405;1291;80951;-57
2022/11/23 06:44:39;;;;;;;59.60;26.10;;;;;;;0.95;89.41;99803.59;100420;1297;100212;-53
2022/11/23 06:47:09;;;;;;;33.00;16.50;;;;;;;0.95;89.61;99802.92;100397;1291;94323;-56
2022/11/23 06:49:41;;;;;;;44.90;20.40;;;;;;;0.97;89.63;99807.31;100391;1291;83339;-60
2022/11/23 06:52:13;;;;;;;37.50;18.70;;;;;;;0.91;89.73;99805.73;100369;1298;88359;-55
2022/11/23 06:54:43;;;;;;;35.30;17.30;;;;;;;0.92;89.61;99805.42;100384;1294;77530;-61
2022/11/23 06:57:13;;;;;;;53.20;24.90;;;;;;;0.94;89.74;99813.41;100433;1297;98256;-56
2022/11/23 06:59:45;;;;;;;38.00;19.90;;;;;;;0.98;89.63;99812.35;100398;1297;95810;-56
2022/11/23 07:02:19;;;;;;;34.40;18.10;;;;;;;0.92;89.58;99812.89;100401;1291;83027;-57
2022/11/23 07:04:48;;;;;;;39.10;19.30;;;;;;;0.90;89.48;99814.58;100382;1291;88792;-60
2022/11/23 07:07:20;;;;;;;40.50;19.90;;;;;;;0.82;89.53;99821.45;100410;1292;82019;-59
2022/11/23 07:09:55;;;;;;;30.40;15.10;;;;;;;0.82;89.44;99823.63;100470;1298;99663;-60
2022/11/23 07:12:29;;;;;;;30.70;15.10;;;;;;;0.81;89.58;99829.23;100411;1291;93633;-60
2022/11/23 07:15:00;;;;;;;32.40;16.00;;;;;;;0.80;89.49;99836.18;100389;1298;80535;-60
2022/11/23 07:17:31;;;;;;;30.60;16.10;;;;;;;0.87;89.63;99842.45;100405;1297;88481;-55
2022/11/23 07:20:00;;;;;;;38.30;18.90;;;;;;;0.91;89.54;99850.02;100457;1291;81337;-62
2022/11/23 07:22:31;;;;;;;38.90;16.60;;;;;;;0.87;89.52;99842.45;100436;1291;99771;-58
2022/11/23 07:25:00;;;;;;;29.00;15.80;;;;;;;0.89;89.45;99833.70;100418;1295;92992;-58
2022/11/23 07:27:32;;;;;;;36.70;18.50;;;;;;;0.97;89.55;99829.95;100432;1297;81745;-58
2022/11/23 07:30:06;;;;;;;30.30;17.20;;;;;;;1.00;89.59;99832.05;100430;1291;86312;-61
2022/11/23 07:32:35;;;;;;;40.20;20.60;;;;;;;0.98;89.48;99832.41;100426;1297;79757;-62
2022/11/23 07:35:07;;;;;;;56.80;23.50;;;;;;;0.94;89.44;99833.27;100355;1298;99103;-58
2022/11/23 07:37:37;;;;;;;36.50;18.10;;;;;;;0.91;89.35;99835.50;100284;1300;97513;-58
2022/11/23 07:40:09;;;;;;;37.70;18.50;;;;;;;0.85;89.56;99835.17;100413;1296;82845;-62
2022/11/23 07:42:39;;;;;;;38.40;19.50;;;;;;;0.80;89.47;99834.82;100376;1297;88074;-61
2022/11/23 07:45:11;;;;;;;33.00;16.10;;;;;;;0.80;89.63;99834.07;100398;1290;80340;-61
2022/11/23 07:47:40;;;;;;;41.10;17.90;;;;;;;0.88;89.47;99831.86;100402;1291;99117;-63
2022/11/23 07:50:15;;;;;;;42.60;19.10;;;;;;;0.85;89.62;99834.36;100405;1294;95248;-64
2022/11/23 07:52:44;;;;;;;33.00;18.50;;;;;;;0.78;89.79;99832.70;100431;1290;83129;-62
2022/11/23 07:55:16;;;;;;;34.20;16.70;;;;;;;0.77;89.74;99835.98;100455;1298;87520;-58
2022/11/23 07:57:45;;;;;;;32.70;16.70;;;;;;;0.73;89.76;99837.54;100462;1291;78423;-59
2022/11/23 08:00:19;;;;;;;37.80;18.80;;;;;;;0.71;89.76;99840.47;100458;1298;99667;-59
2022/11/23 08:02:48;;;;;;;39.00;19.60;;;;;;;0.70;89.71;99834.52;100460;1290;94996;-60
2022/11/23 08:05:21;;;;;;;44.80;20.70;;;;;;;0.73;89.64;99836.34;100472;1297;82141;-59
2022/11/23 08:07:52;;;;;;;39.10;18.90;;;;;;;0.66;89.80;99840.55;100268;1297;90517;-58
2022/11/23 08:10:24;;;;;;;39.20;18.20;;;;;;;0.68;89.78;99835.71;100436;1297;81058;-61
2022/11/23 08:12:58;;;;;;;53.30;21.30;;;;;;;0.70;89.84;99833.79;100401;1291;99744;-61
2022/11/23 08:15:29;;;;;;;41.00;18.80;;;;;;;0.77;89.81;99836.80;100366;1291;92758;-61
2022/11/23 08:18:05;;;;;;;30.70;15.10;;;;;;;0.77;89.90;99840.19;100392;1298;81646;-61
2022/11/23 08:20:35;;;;;;;36.90;17.20;;;;;;;0.73;89.81;99840.62;100376;1297;87319;-58
2022/11/23 08:23:05;;;;;;;36.60;19.50;;;;;;;0.70;89.71;99843.52;100484;1297;78202;-58
2022/11/23 08:25:36;;;;;;;34.90;17.30;;;;;;;0.71;89.82;99842.18;100367;1291;98877;-58
2022/11/23 08:28:09;;;;;;;36.70;17.50;;;;;;;0.71;89.81;99841.31;100425;1297;95297;-60
2022/11/23 08:30:42;;;;;;;35.80;17.40;;;;;;;0.72;89.77;99849.73;100423;1296;83000;-56
2022/11/23 08:33:12;;;;;;;37.80;17.80;;;;;;;0.67;89.65;99853.55;100425;1290;88883;-62
2022/11/23 08:35:45;;;;;;;34.90;17.70;;;;;;;0.65;89.74;99854.94;100414;1286;79717;-62
2022/11/23 08:38:16;;;;;;;40.00;18.40;;;;;;;0.66;89.71;99851.02;100452;1292;98303;-60
2022/11/23 08:40:44;;;;;;;33.20;17.20;;;;;;;0.65;89.68;99854.45;100404;1298;95816;-60
2022/11/23 08:43:16;;;;;;;39.30;20.30;;;;;;;0.72;89.52;99852.55;100281;1291;82935;-60
2022/11/23 08:45:45;;;;;;;48.70;23.10;;;;;;;0.73;89.45;99847.47;100408;1297;89338;-61
2022/11/23 08:48:14;;;;;;;34.10;17.80;;;;;;;0.80;89.41;99847.33;100424;1298;81561;-60
2022/11/23 08:50:47;;;;;;;32.10;18.10;;;;;;;0.84;89.36;99848.98;100189;1301;99738;-61
2022/11/23 08:53:17;;;;;;;33.00;17.80;;;;;;;0.89;89.45;99849.89;100261;1294;94695;-57
2022/11/23 08:55:48;;;;;;;32.20;17.20;;;;;;;0.95;89.41;99853.58;100239;1301;82224;-61
2022/11/23 08:58:20;;;;;;;35.40;18.80;;;;;;;0.84;89.39;99855.55;100249;1300;88003;-59
2022/11/23 09:00:52;;;;;;;34.00;19.10;;;;;;;0.86;89.38;99854.64;100258;1293;79088;-58
2022/11/23 09:03:24;;;;;;;32.50;18.00;;;;;;;0.92;89.23;99857.05;100273;1295;98092;-61
2022/11/23 09:05:54;;;;;;;39.80;20.40;;;;;;;0.96;89.22;99859.98;100246;1298;95281;-61
2022/11/23 09:08:23;;;;;;;32.10;17.20;;;;;;;0.96;89.10;99861.42;100284;1298;83469;-60
2022/11/23 09:10:54;;;;;;;28.70;16.60;;;;;;;0.93;89.07;99854.63;100217;1300;88507;-60
2022/11/23 09:13:25;;;;;;;32.60;17.20;;;;;;;0.99;88.98;99856.01;100233;1300;81103;-53
2022/11/23 09:15:56;;;;;;;30.00;16.40;;;;;;;0.99;88.90;99852.02;100195;1295;98611;-58
2022/11/23 09:18:30;;;;;;;35.00;17.90;;;;;;;1.02;89.04;99853.46;100232;1294;95749;-62
2022/11/23 09:21:04;;;;;;;35.10;18.30;;;;;;;1.06;89.00;99853.29;100270;1298;82474;-61
2022/11/23 09:23:34;;;;;;;30.50;18.90;;;;;;;1.01;88.85;99855.14;100230;1300;88071;-60
2022/11/23 09:26:09;;;;;;;29.10;16.20;;;;;;;1.03;88.74;99860.84;100277;1293;77725;-59
2022/11/23 09:28:43;;;;;;;32.20;17.30;;;;;;;0.93;88.75;99860.16;100237;1301;97231;-59
2022/11/23 09:31:15;;;;;;;30.80;16.40;;;;;;;0.86;88.72;99859.74;100259;1295;95535;-58
2022/11/23 09:33:44;;;;;;;30.60;16.80;;;;;;;0.79;88.64;99854.88;100223;1300;83250;-62
2022/11/23 09:36:15;;;;;;;28.30;15.80;;;;;;;0.87;88.62;99851.17;100251;1293;87162;-62
2022/11/23 09:38:47;;;;;;;28.50;16.50;;;;;;;0.92;88.67;99857.73;100230;1290;79545;-59
2022/11/23 09:41:53;;;;;;;26.30;14.00;;;;;;;0.97;88.74;99858.67;100221;1301;98801;-60
2022/11/23 09:44:32;;;;;;;26.90;15.70;;;;;;;0.93;88.59;99861.95;100228;1300;96096;-58
2022/11/23 09:47:22;;;;;;;27.20;15.50;;;;;;;0.97;88.60;99858.92;100228;1287;79405;-58
2022/11/23 09:50:03;;;;;;;25.50;15.00;;;;;;;0.92;88.47;99855.31;100289;1291;88607;-56
2022/11/23 09:52:36;;;;;;;25.80;15.20;;;;;;;0.88;88.42;99849.23;100418;1299;79937;-56
2022/11/23 09:55:14;;;;;;;28.30;14.80;;;;;;;0.79;88.37;99848.39;100409;1291;98468;-57
2022/11/23 09:57:49;;;;;;;28.70;16.80;;;;;;;0.78;88.32;99844.00;100388;1291;95052;-58
2022/11/23 10:00:25;;;;;;;28.50;17.10;;;;;;;0.87;88.29;99844.43;100383;1298;83546;-57
2022/11/23 10:02:54;;;;;;;28.60;16.30;;;;;;;0.83;88.33;99839.85;100412;1291;87179;-58
2022/11/23 10:05:31;;;;;;;29.30;16.60;;;;;;;0.86;88.42;99838.49;100397;1297;81302;-58
2022/11/23 10:08:16;;;;;;;26.50;15.50;;;;;;;0.94;88.32;99841.23;100435;1297;99184;-57
2022/11/23 10:10:57;;;;;;;26.00;15.30;;;;;;;0.94;88.39;99835.59;100387;1291;92134;-61
2022/11/23 10:13:42;;;;;;;36.60;21.00;;;;;;;0.93;88.22;99829.29;100396;1291;83225;-59
2022/11/23 10:16:29;;;;;;;25.90;15.80;;;;;;;0.93;88.13;99826.63;100395;1297;88716;-56
2022/11/23 10:19:09;;;;;;;32.80;18.70;;;;;;;0.90;88.19;99822.99;100393;1297;76767;-58
2022/11/23 10:21:49;;;;;;;34.70;19.10;;;;;;;0.93;88.18;99826.86;100396;1295;100187;-59
2022/11/23 10:24:27;;;;;;;31.20;18.20;;;;;;;0.94;88.08;99833.06;100374;1292;95717;-58
2022/11/23 10:26:57;;;;;;;29.80;16.90;;;;;;;0.96;88.06;99827.60;100394;1291;80621;-58
2022/11/23 10:29:32;;;;;;;31.00;19.50;;;;;;;1.03;88.02;99830.29;100411;1292;88949;-61
2022/11/23 10:32:02;;;;;;;28.40;18.30;;;;;;;1.12;87.87;99825.39;100424;1290;81582;-62
2022/11/23 10:34:49;;;;;;;29.00;17.50;;;;;;;1.14;87.83;99832.66;100402;1297;98814;-58
2022/11/23 10:37:19;;;;;;;26.60;15.60;;;;;;;1.10;87.92;99834.10;100383;1296;95271;-59
2022/11/23 10:39:50;;;;;;;32.80;19.50;;;;;;;1.14;87.97;99837.40;100403;1297;82038;-60
2022/11/23 10:42:30;;;;;;;33.00;21.60;;;;;;;1.17;87.81;99832.18;100377;1297;89320;-61
2022/11/23 10:45:04;;;;;;;36.00;20.20;;;;;;;1.14;87.91;99829.62;100417;1292;81103;-59
2022/11/23 10:47:41;;;;;;;39.70;24.70;;;;;;;1.10;87.88;99825.59;100382;1297;99247;-62
2022/11/23 10:50:32;;;;;;;35.70;19.80;;;;;;;1.11;87.68;99824.08;100383;1298;95353;-59
2022/11/23 10:53:25;;;;;;;29.70;18.30;;;;;;;1.09;87.57;99820.14;100372;1292;83419;-61
2022/11/23 10:55:57;;;;;;;25.10;16.50;;;;;;;1.05;87.61;99812.06;100393;1292;89077;-59
2022/11/23 10:58:34;;;;;;;29.30;16.70;;;;;;;0.97;87.66;99805.13;100423;1298;79426;-54
2022/11/23 11:01:12;;;;;;;28.20;16.60;;;;;;;0.97;87.64;99802.49;100388;1296;99528;-57
2022/11/23 11:03:41;;;;;;;33.60;21.30;;;;;;;0.98;87.73;99802.80;100436;1291;95368;-62
2022/11/23 11:06:24;;;;;;;41.70;24.50;;;;;;;1.06;87.76;99805.89;100427;1291;81501;-62
2022/11/23 11:08:59;;;;;;;33.50;18.50;;;;;;;1.15;87.73;99797.60;100388;1297;89022;-58
2022/11/23 11:11:32;;;;;;;45.90;26.30;;;;;;;1.19;87.57;99795.83;100409;1291;78434;-58
2022/11/23 11:14:18;;;;;;;42.40;23.90;;;;;;;1.21;87.49;99796.87;100396;1291;97758;-55
2022/11/23 11:16:53;;;;;;;27.00;16.10;;;;;;;1.25;87.43;99787.81;100378;1297;95783;-57
2022/11/23 11:19:31;;;;;;;25.40;15.60;;;;;;;1.14;87.23;99784.96;100398;1298;81179;-62
2022/11/23 11:22:02;;;;;;;28.20;16.50;;;;;;;1.10;87.30;99785.34;100404;1297;88261;-62
2022/11/23 11:24:37;;;;;;;29.40;16.20;;;;;;;1.02;87.41;99787.14;100395;1297;79929;-58
2022/11/23 11:27:15;;;;;;;28.50;17.10;;;;;;;1.04;87.54;99777.17;100442;1297;99103;-57
2022/11/23 11:29:54;;;;;;;24.40;15.80;;;;;;;1.23;87.52;99781.27;100380;1297;95037;-63
2022/11/23 11:32:29;;;;;;;25.80;15.50;;;;;;;1.17;87.37;99774.95;100410;1297;82619;-62
2022/11/23 11:35:00;;;;;;;;;;;;;;;1.25;87.33;99779.13;100382;1298;89170;-61
2022/11/23 11:37:40;;;;;;;26.60;15.90;;;;;;;1.27;87.26;99786.07;100438;1297;79648;-61
2022/11/23 11:40:22;;;;;;;36.10;20.50;;;;;;;1.26;87.18;99787.73;100399;1291;99013;-61